createdAt,value
2022-08-19T00:00:38.938Z,100360.38
2022-08-19T00:03:44.502Z,100355.75
2022-08-19T00:06:49.995Z,100366.09
2022-08-19T00:09:56.789Z,100364.44
2022-08-19T00:13:03.448Z,100364.97
2022-08-19T00:16:08.829Z,100362.53
2022-08-19T00:19:14.804Z,100366.66
2022-08-19T00:22:20.527Z,100369.09
2022-08-19T00:25:30.159Z,100358.75
2022-08-19T00:28:36.910Z,100361.22
2022-08-19T00:31:42.928Z,100351.97
2022-08-19T00:34:48.502Z,100348.44
2022-08-19T00:37:54.017Z,100342.16
2022-08-19T00:40:59.832Z,100341.88
2022-08-19T00:44:05.836Z,100354.38
2022-08-19T00:47:14.131Z,100353.56
2022-08-19T00:50:31.319Z,100358.16
2022-08-19T00:53:36.832Z,100350.78
2022-08-19T00:56:42.259Z,100353.44
2022-08-19T01:00:01.025Z,100359.06
2022-08-19T01:03:07.856Z,100356.78
2022-08-19T01:06:16.098Z,100360.84
2022-08-19T01:09:26.439Z,100352.66
2022-08-19T01:12:32.459Z,100357.00
2022-08-19T01:15:37.709Z,100358.34
2022-08-19T01:18:43.052Z,100360.50
2022-08-19T01:21:48.698Z,100369.72
2022-08-19T01:24:55.306Z,100365.66
2022-08-19T01:28:09.929Z,100364.03
2022-08-19T01:31:26.751Z,100371.91
2022-08-19T01:34:35.138Z,100372.19
2022-08-19T01:37:41.589Z,100373.91
2022-08-19T01:40:47.006Z,100376.09
2022-08-19T01:44:03.191Z,100377.78
2022-08-19T01:47:18.132Z,100378.34
2022-08-19T01:50:23.507Z,100378.13
2022-08-19T01:53:30.548Z,100372.97
2022-08-19T01:56:39.399Z,100375.28
2022-08-19T01:59:44.682Z,100383.47
2022-08-19T02:02:50.385Z,100379.66
2022-08-19T02:05:55.877Z,100390.53
2022-08-19T02:09:02.113Z,100384.28
2022-08-19T02:12:14.385Z,100386.72
2022-08-19T02:15:20.008Z,100388.38
2022-08-19T02:18:28.011Z,100397.59
2022-08-19T02:21:34.913Z,100388.91
2022-08-19T02:24:40.405Z,100385.09
2022-08-19T02:27:46.075Z,100395.44
2022-08-19T02:30:51.525Z,100388.91
2022-08-19T02:33:57.751Z,100397.06
2022-08-19T02:37:04.041Z,100404.94
2022-08-19T02:40:12.420Z,100404.69
2022-08-19T02:43:19.461Z,100413.41
2022-08-19T02:49:44.594Z,100411.31
2022-08-19T02:52:49.681Z,100402.06
2022-08-19T02:55:55.383Z,100404.75
2022-08-19T02:59:01.827Z,100403.13
2022-08-19T03:02:07.614Z,100411.84
2022-08-19T03:05:14.397Z,100407.50
2022-08-19T03:08:20.205Z,100397.72
2022-08-19T03:11:27.299Z,100395.00
2022-08-19T03:14:32.807Z,100398.78
2022-08-19T03:17:38.556Z,100405.31
2022-08-19T03:20:44.035Z,100406.69
2022-08-19T03:23:49.405Z,100401.50
2022-08-19T03:26:58.622Z,100405.56
2022-08-19T03:30:05.313Z,100399.88
2022-08-19T03:33:18.103Z,100398.25
2022-08-19T03:36:25.583Z,100398.78
2022-08-19T03:39:33.171Z,100399.34
2022-08-19T03:42:48.580Z,100394.41
2022-08-19T03:45:56.584Z,100403.66
2022-08-19T03:49:09.461Z,100411.84
2022-08-19T03:52:15.276Z,100405.84
2022-08-19T03:55:22.497Z,100408.28
2022-08-19T03:58:28.984Z,100403.44
2022-08-19T04:01:35.117Z,100408.06
2022-08-19T04:04:40.753Z,100404.69
2022-08-19T04:07:45.943Z,100398.66
2022-08-19T04:10:51.996Z,100406.97
2022-08-19T04:13:58.064Z,100394.41
2022-08-19T04:17:05.779Z,100406.44
2022-08-19T04:20:14.181Z,100405.13
2022-08-19T04:23:20.205Z,100409.53
2022-08-19T04:26:26.720Z,100399.06
2022-08-19T04:29:32.068Z,100405.97
2022-08-19T04:32:37.323Z,100402.19
2022-08-19T04:35:43.117Z,100404.44
2022-08-19T04:38:49.293Z,100402.25
2022-08-19T04:42:12.542Z,100400.06
2022-08-19T04:45:17.856Z,100399.28
2022-08-19T04:48:27.919Z,100408.84
2022-08-19T04:51:33.539Z,100415.13
2022-08-19T04:54:40.061Z,100403.66
2022-08-19T04:57:52.968Z,100414.28
2022-08-19T05:01:01.050Z,100412.09
2022-08-19T05:04:14.077Z,100404.19
2022-08-19T05:07:19.963Z,100405.59
2022-08-19T05:10:26.870Z,100406.41
2022-08-19T05:13:35.932Z,100409.38
2022-08-19T05:16:44.065Z,100405.56
2022-08-19T05:20:07.348Z,100406.66
2022-08-19T05:23:20.656Z,100401.75
2022-08-19T05:26:28.175Z,100402.53
2022-08-19T05:29:36.370Z,100408.53
2022-08-19T05:32:42.313Z,100401.75
2022-08-19T05:35:49.417Z,100400.38
2022-08-19T05:38:55.356Z,100393.25
2022-08-19T05:42:01.086Z,100393.81
2022-08-19T05:45:06.588Z,100389.72
2022-08-19T05:48:12.454Z,100403.59
2022-08-19T05:51:18.118Z,100414.50
2022-08-19T05:54:24.101Z,100423.94
2022-08-19T05:57:30.091Z,100415.16
2022-08-19T06:00:38.450Z,100408.84
2022-08-19T06:03:44.304Z,100413.69
2022-08-19T06:06:57.438Z,100410.63
2022-08-19T06:10:03.340Z,100408.38
2022-08-19T06:13:09.817Z,100413.44
2022-08-19T06:16:23.302Z,100407.72
2022-08-19T06:19:30.874Z,100405.06
2022-08-19T06:22:37.255Z,100399.38
2022-08-19T06:25:42.964Z,100385.16
2022-08-19T06:28:51.402Z,100392.56
2022-08-19T06:31:57.804Z,100403.09
2022-08-19T06:35:04.393Z,100407.50
2022-08-19T06:38:10.442Z,100399.53
2022-08-19T06:41:16.184Z,100399.97
2022-08-19T06:44:25.270Z,100403.53
2022-08-19T06:47:31.976Z,100408.72
2022-08-19T06:50:39.454Z,100409.47
2022-08-19T06:53:48.051Z,100414.75
2022-08-19T06:56:54.375Z,100412.13
2022-08-19T07:00:00.908Z,100414.88
2022-08-19T07:03:08.761Z,100401.13
2022-08-19T07:06:44.344Z,100413.63
2022-08-19T07:09:58.429Z,100410.44
2022-08-19T07:13:06.981Z,100410.91
2022-08-19T07:16:12.313Z,100409.25
2022-08-19T07:19:19.257Z,100414.22
2022-08-19T07:22:24.948Z,100423.94
2022-08-19T07:25:33.333Z,100412.09
2022-08-19T07:28:40.226Z,100418.66
2022-08-19T07:31:58.401Z,100413.13
2022-08-19T07:38:31.536Z,100422.78
2022-08-19T07:41:38.049Z,100411.75
2022-08-19T07:44:50.003Z,100411.41
2022-08-19T07:47:56.328Z,100423.34
2022-08-19T07:51:02.857Z,100422.94
2022-08-19T07:54:09.015Z,100419.69
2022-08-19T07:57:14.741Z,100414.44
2022-08-19T08:00:23.197Z,100416.88
2022-08-19T08:03:44.179Z,100408.31
2022-08-19T08:07:07.640Z,100398.63
2022-08-19T08:10:20.561Z,100411.44
2022-08-19T08:13:27.456Z,100404.75
2022-08-19T08:16:33.257Z,100406.25
2022-08-19T08:19:42.092Z,100414.53
2022-08-19T08:23:05.843Z,100407.47
2022-08-19T08:26:12.127Z,100414.63
2022-08-19T08:29:18.340Z,100410.81
2022-08-19T08:32:25.219Z,100407.16
2022-08-19T08:35:30.881Z,100405.91
2022-08-19T08:38:40.849Z,100398.97
2022-08-19T08:41:47.867Z,100397.38
2022-08-19T08:48:03.838Z,100404.03
2022-08-19T08:51:31.860Z,100406.16
2022-08-19T08:54:48.811Z,100396.28
2022-08-19T08:58:00.440Z,100392.53
2022-08-19T09:01:06.160Z,100401.16
2022-08-19T09:04:11.737Z,100401.28
2022-08-19T09:07:18.427Z,100398.69
2022-08-19T09:10:44.311Z,100395.28
2022-08-19T09:13:50.908Z,100394.16
2022-08-19T09:16:56.621Z,100387.16
2022-08-19T09:20:05.880Z,100377.41
2022-08-19T09:23:14.804Z,100376.78
2022-08-19T09:26:21.030Z,100377.91
2022-08-19T09:29:27.743Z,100378.72
2022-08-19T09:32:33.243Z,100375.75
2022-08-19T09:35:49.914Z,100379.97
2022-08-19T09:38:59.765Z,100386.78
2022-08-19T09:42:30.032Z,100377.38
2022-08-19T09:45:36.253Z,100373.63
2022-08-19T09:48:41.852Z,100379.91
2022-08-19T09:51:51.266Z,100370.00
2022-08-19T09:54:56.678Z,100364.94
2022-08-19T09:58:26.400Z,100357.19
2022-08-19T10:01:32.333Z,100359.41
2022-08-19T10:04:55.656Z,100360.22
2022-08-19T10:08:01.864Z,100369.44
2022-08-19T10:11:28.034Z,100368.88
2022-08-19T10:14:36.211Z,100359.75
2022-08-19T10:17:41.762Z,100366.22
2022-08-19T10:21:00.637Z,100356.31
2022-08-19T10:24:06.343Z,100363.81
2022-08-19T10:27:17.031Z,100361.97
2022-08-19T10:30:22.310Z,100359.38
2022-08-19T10:33:39.363Z,100356.06
2022-08-19T10:37:00.848Z,100352.69
2022-08-19T10:40:12.955Z,100352.69
2022-08-19T10:43:19.233Z,100355.50
2022-08-19T10:46:25.595Z,100339.75
2022-08-19T10:49:31.205Z,100348.56
2022-08-19T10:52:38.918Z,100337.19
2022-08-19T10:56:02.855Z,100321.09
2022-08-19T10:59:08.445Z,100328.44
2022-08-19T11:02:14.220Z,100332.63
2022-08-19T11:05:19.750Z,100329.94
2022-08-19T11:08:27.708Z,100321.44
2022-08-19T11:11:34.018Z,100318.66
2022-08-19T11:14:44.860Z,100312.75
2022-08-19T11:17:50.264Z,100317.19
2022-08-19T11:20:56.060Z,100316.09
2022-08-19T11:24:01.752Z,100313.66
2022-08-19T11:27:15.377Z,100311.38
2022-08-19T11:30:21.008Z,100315.41
2022-08-19T11:33:27.648Z,100315.22
2022-08-19T11:36:43.532Z,100310.69
2022-08-19T11:39:51.873Z,100297.56
2022-08-19T11:42:59.814Z,100301.56
2022-08-19T11:46:08.038Z,100306.06
2022-08-19T11:49:14.187Z,100308.09
2022-08-19T11:52:19.936Z,100304.16
2022-08-19T11:55:25.343Z,100291.56
2022-08-19T11:58:31.486Z,100293.41
2022-08-19T12:01:36.820Z,100294.16
2022-08-19T12:04:42.270Z,100286.50
2022-08-19T12:07:55.415Z,100283.94
2022-08-19T12:11:02.539Z,100286.44
2022-08-19T12:14:08.124Z,100282.78
2022-08-19T12:17:20.283Z,100276.28
2022-08-19T12:20:25.784Z,100282.91
2022-08-19T12:23:31.707Z,100275.50
2022-08-19T12:26:52.628Z,100275.22
2022-08-19T12:33:32.666Z,100266.16
2022-08-19T12:36:38.907Z,100257.84
2022-08-19T12:39:44.745Z,100254.47
2022-08-19T12:42:52.071Z,100246.22
2022-08-19T12:45:57.483Z,100237.97
2022-08-19T12:49:27.391Z,100238.00
2022-08-19T12:52:37.922Z,100236.94
2022-08-19T12:55:43.799Z,100225.22
2022-08-19T12:58:52.977Z,100227.88
2022-08-19T13:01:59.056Z,100224.09
2022-08-19T13:05:11.537Z,100225.78
2022-08-19T13:08:18.048Z,100219.19
2022-08-19T13:11:25.449Z,100223.69
2022-08-19T13:14:32.530Z,100223.75
2022-08-19T13:17:39.920Z,100229.03
2022-08-19T13:20:52.460Z,100213.47
2022-08-19T13:23:58.350Z,100211.16
2022-08-19T13:27:03.721Z,100200.50
2022-08-19T13:33:51.263Z,100201.41
2022-08-19T13:36:56.710Z,100205.63
2022-08-19T13:40:02.711Z,100199.91
2022-08-19T13:43:17.734Z,100190.31
2022-08-19T13:46:31.660Z,100192.34
2022-08-19T13:49:37.499Z,100182.28
2022-08-19T13:52:42.984Z,100187.47
2022-08-19T13:55:49.677Z,100185.94
2022-08-19T13:58:55.623Z,100192.81
2022-08-19T14:02:06.522Z,100188.28
2022-08-19T14:05:12.777Z,100191.94
2022-08-19T14:08:20.841Z,100189.56
2022-08-19T14:11:26.135Z,100198.88
2022-08-19T14:14:32.898Z,100187.72
2022-08-19T14:17:38.577Z,100193.38
2022-08-19T14:20:45.051Z,100195.38
2022-08-19T14:23:50.857Z,100188.59
2022-08-19T14:26:56.508Z,100182.84
2022-08-19T14:30:03.496Z,100184.69
2022-08-19T14:33:09.519Z,100183.88
2022-08-19T14:36:15.082Z,100185.16
2022-08-19T14:39:27.167Z,100181.72
2022-08-19T14:42:32.870Z,100179.88
2022-08-19T14:45:38.771Z,100177.78
2022-08-19T14:48:46.727Z,100176.91
2022-08-19T14:51:57.600Z,100176.66
2022-08-19T14:55:03.099Z,100186.56
2022-08-19T14:58:28.546Z,100188.50
2022-08-19T15:01:35.895Z,100174.34
2022-08-19T15:04:41.399Z,100183.44
2022-08-19T15:07:47.382Z,100179.88
2022-08-19T15:10:52.996Z,100186.56
2022-08-19T15:13:58.139Z,100190.72
2022-08-19T15:17:04.063Z,100191.59
2022-08-19T15:20:09.501Z,100199.31
2022-08-19T15:23:15.320Z,100201.47
2022-08-19T15:26:20.994Z,100207.59
2022-08-19T15:29:28.242Z,100198.81
2022-08-19T15:32:33.699Z,100193.69
2022-08-19T15:35:41.081Z,100197.50
2022-08-19T15:38:46.989Z,100189.25
2022-08-19T15:41:54.359Z,100190.47
2022-08-19T15:45:02.030Z,100187.59
2022-08-19T15:48:07.968Z,100179.88
2022-08-19T15:51:13.655Z,100184.09
2022-08-19T15:54:21.603Z,100188.69
2022-08-19T15:57:45.067Z,100177.53
2022-08-19T16:01:12.780Z,100180.50
2022-08-19T16:04:36.641Z,100184.94
2022-08-19T16:07:42.472Z,100179.16
2022-08-19T16:10:48.518Z,100178.06
2022-08-19T16:13:57.981Z,100186.84
2022-08-19T16:17:05.096Z,100190.50
2022-08-19T16:20:10.535Z,100186.63
2022-08-19T16:23:16.502Z,100188.00
2022-08-19T16:26:21.745Z,100181.72
2022-08-19T16:29:34.783Z,100185.63
2022-08-19T16:32:44.846Z,100174.59
2022-08-19T16:36:00.105Z,100178.03
2022-08-19T16:39:20.180Z,100179.00
2022-08-19T16:42:26.243Z,100185.34
2022-08-19T16:45:31.904Z,100193.97
2022-08-19T16:48:42.914Z,100201.31
2022-08-19T16:51:50.521Z,100200.72
2022-08-19T16:54:59.442Z,100191.63
2022-08-19T16:58:05.080Z,100191.16
2022-08-19T17:01:11.341Z,100202.75
2022-08-19T17:04:16.903Z,100204.41
2022-08-19T17:07:22.337Z,100212.91
2022-08-19T17:10:32.336Z,100215.72
2022-08-19T17:13:38.574Z,100222.84
2022-08-19T17:16:44.592Z,100218.94
2022-08-19T17:19:50.161Z,100232.09
2022-08-19T17:23:14.871Z,100239.34
2022-08-19T17:26:20.328Z,100238.25
2022-08-19T17:29:28.300Z,100237.97
2022-08-19T17:32:35.249Z,100230.53
2022-08-19T17:35:43.701Z,100231.47
2022-08-19T17:38:49.896Z,100229.22
2022-08-19T17:41:57.146Z,100222.00
2022-08-19T17:45:08.635Z,100227.28
2022-08-19T17:48:14.284Z,100231.94
2022-08-19T17:51:22.008Z,100227.69
2022-08-19T17:54:33.192Z,100219.47
2022-08-19T17:57:46.558Z,100219.47
2022-08-19T18:00:54.495Z,100220.78
2022-08-19T18:03:59.961Z,100210.94
2022-08-19T18:07:06.504Z,100219.69
2022-08-19T18:10:12.057Z,100222.72
2022-08-19T18:13:18.114Z,100218.56
2022-08-19T18:16:23.608Z,100222.13
2022-08-19T18:19:31.528Z,100218.56
2022-08-19T18:22:48.162Z,100220.13
2022-08-19T18:25:53.804Z,100234.13
2022-08-19T18:28:59.422Z,100247.59
2022-08-19T18:32:05.081Z,100243.16
2022-08-19T18:35:11.310Z,100259.28
2022-08-19T18:38:34.448Z,100263.03
2022-08-19T18:41:57.585Z,100261.94
2022-08-19T18:45:21.895Z,100254.59
2022-08-19T18:48:45.056Z,100257.31
2022-08-19T18:51:51.517Z,100256.22
2022-08-19T18:54:57.025Z,100265.91
2022-08-19T18:58:02.842Z,100255.72
2022-08-19T19:01:11.182Z,100233.75
2022-08-19T19:04:23.549Z,100239.56
2022-08-19T19:07:35.658Z,100244.59
2022-08-19T19:10:42.344Z,100240.09
2022-08-19T19:13:49.365Z,100240.53
2022-08-19T19:16:55.350Z,100232.19
2022-08-19T19:20:06.865Z,100228.47
2022-08-19T19:23:12.325Z,100228.06
2022-08-19T19:26:17.839Z,100228.44
2022-08-19T19:29:26.154Z,100224.38
2022-08-19T19:32:39.254Z,100225.56
2022-08-19T19:35:47.160Z,100229.69
2022-08-19T19:38:53.832Z,100218.81
2022-08-19T19:42:03.350Z,100228.09
2022-08-19T19:45:09.175Z,100220.72
2022-08-19T19:48:16.281Z,100232.78
2022-08-19T19:51:22.417Z,100238.94
2022-08-19T19:54:28.695Z,100231.19
2022-08-19T19:57:35.291Z,100236.94
2022-08-19T20:00:40.534Z,100238.66
2022-08-19T20:03:48.884Z,100239.53
2022-08-19T20:06:54.480Z,100222.47
2022-08-19T20:10:00.293Z,100226.44
2022-08-19T20:13:05.911Z,100234.38
2022-08-19T20:16:17.998Z,100241.75
2022-08-19T20:19:23.453Z,100239.38
2022-08-19T20:22:33.950Z,100240.50
2022-08-19T20:25:39.350Z,100244.16
2022-08-19T20:28:50.623Z,100248.59
2022-08-19T20:32:04.290Z,100236.59
2022-08-19T20:35:11.065Z,100240.72
2022-08-19T20:38:16.874Z,100225.72
2022-08-19T20:41:22.888Z,100233.91
2022-08-19T20:44:28.468Z,100235.09
2022-08-19T20:47:37.887Z,100246.44
2022-08-19T20:50:43.335Z,100246.81
2022-08-19T20:53:49.235Z,100264.63
2022-08-19T20:56:54.437Z,100288.84
2022-08-19T20:59:59.980Z,100274.63
2022-08-19T21:03:05.593Z,100266.94
2022-08-19T21:06:10.940Z,100267.00
2022-08-19T21:09:25.351Z,100239.03
2022-08-19T21:12:33.371Z,100232.84
2022-08-19T21:15:40.859Z,100236.19
2022-08-19T21:18:46.192Z,100230.50
2022-08-19T21:21:51.585Z,100223.47
2022-08-19T21:24:57.198Z,100227.56
2022-08-19T21:28:02.659Z,100225.97
2022-08-19T21:31:10.483Z,100218.88
2022-08-19T21:34:16.696Z,100213.97
2022-08-19T21:37:25.345Z,100219.16
2022-08-19T21:40:45.860Z,100229.50
2022-08-19T21:43:52.022Z,100240.94
2022-08-19T21:46:57.723Z,100256.19
2022-08-19T21:50:03.714Z,100256.44
2022-08-19T21:53:11.297Z,100248.28
2022-08-19T21:56:19.302Z,100239.03
2022-08-19T21:59:24.607Z,100237.66
2022-08-19T22:02:29.889Z,100233.59
2022-08-19T22:05:44.741Z,100241.47
2022-08-19T22:08:50.528Z,100234.41
2022-08-19T22:11:55.932Z,100217.19
2022-08-19T22:15:01.886Z,100203.06
2022-08-19T22:18:07.067Z,100190.31
2022-08-19T22:21:14.561Z,100187.06
2022-08-19T22:24:20.111Z,100176.72
2022-08-19T22:27:25.668Z,100167.19
2022-08-19T22:30:33.344Z,100155.50
2022-08-19T22:33:43.166Z,100149.50
2022-08-19T22:37:06.761Z,100148.13
2022-08-19T22:40:12.648Z,100151.66
2022-08-19T22:43:22.402Z,100153.28
2022-08-19T22:46:45.418Z,100144.00
2022-08-19T22:49:51.946Z,100136.91
2022-08-19T22:53:02.915Z,100112.16
2022-08-19T22:56:10.856Z,100110.28
2022-08-19T22:59:19.961Z,100105.66
2022-08-19T23:02:25.515Z,100118.47
2022-08-19T23:05:31.181Z,100112.19
2022-08-19T23:08:37.549Z,100116.28
2022-08-19T23:11:43.147Z,100121.41
2022-08-19T23:14:48.903Z,100125.22
2022-08-19T23:17:58.076Z,100130.44
2022-08-19T23:21:09.713Z,100132.88
2022-08-19T23:24:15.193Z,100130.38
2022-08-19T23:27:39.323Z,100132.00
2022-08-19T23:30:44.615Z,100131.47
2022-08-19T23:33:53.751Z,100124.13
2022-08-19T23:37:02.038Z,100121.72
2022-08-19T23:40:07.723Z,100125.25
2022-08-19T23:43:17.410Z,100099.13
2022-08-19T23:46:29.939Z,100106.78
2022-08-19T23:49:37.383Z,100102.69
2022-08-19T23:52:43.647Z,100099.94
2022-08-19T23:55:49.249Z,100098.00
2022-08-19T23:58:54.960Z,100087.91
